sensor_id;sensor_type;location;lat;lon;timestamp;pressure;altitude;pressure_sealevel;temperature;humidity
75945;BME280;64628;50.104;14.614;2023-05-21T03:19:12;98773.89;;;16.30;47.77
75945;BME280;64628;50.104;14.614;2023-05-21T03:21:35;98769.51;;;16.34;47.64
75945;BME280;64628;50.104;14.614;2023-05-21T03:23:56;98772.80;;;16.38;47.51
75945;BME280;64628;50.104;14.614;2023-05-21T03:26:27;98769.87;;;16.45;47.32
75945;BME280;64628;50.104;14.614;2023-05-21T03:31:08;98770.95;;;16.46;47.13
75945;BME280;64628;50.104;14.614;2023-05-21T03:33:36;98769.98;;;16.25;47.14
75945;BME280;64628;50.104;14.614;2023-05-21T03:36:14;98770.04;;;16.51;47.24
75945;BME280;64628;50.104;14.614;2023-05-21T03:43:18;98772.78;;;16.31;47.29
75945;BME280;64628;50.104;14.614;2023-05-21T03:48:21;98771.68;;;16.48;47.18
75945;BME280;64628;50.104;14.614;2023-05-21T04:29:31;98779.82;;;17.36;46.54
75945;BME280;64628;50.104;14.614;2023-05-21T05:39:49;98780.64;;;20.84;40.79
75945;BME280;64628;50.104;14.614;2023-05-21T07:12:01;98765.57;;;45.38;11.64
75945;BME280;64628;50.104;14.614;2023-05-21T07:19:08;98764.01;;;47.11;10.46
75945;BME280;64628;50.104;14.614;2023-05-21T07:21:29;98763.12;;;47.11;10.25
75945;BME280;64628;50.104;14.614;2023-05-21T07:24:06;98763.12;;;47.35;9.94
75945;BME280;64628;50.104;14.614;2023-05-21T07:31:15;98753.17;;;47.76;9.87
75945;BME280;64628;50.104;14.614;2023-05-21T07:33:41;98753.27;;;48.52;9.97
75945;BME280;64628;50.104;14.614;2023-05-21T07:36:10;98747.39;;;48.64;9.57
75945;BME280;64628;50.104;14.614;2023-05-21T07:41:00;98748.57;;;48.01;9.48
75945;BME280;64628;50.104;14.614;2023-05-21T07:43:21;98747.69;;;48.57;9.46
75945;BME280;64628;50.104;14.614;2023-05-21T07:45:49;98747.81;;;48.40;9.54
75945;BME280;64628;50.104;14.614;2023-05-21T07:48:13;98747.78;;;48.05;9.73
75945;BME280;64628;50.104;14.614;2023-05-21T07:50:36;98747.04;;;48.23;9.56
75945;BME280;64628;50.104;14.614;2023-05-21T07:53:03;98750.35;;;48.91;9.20
75945;BME280;64628;50.104;14.614;2023-05-21T07:55:35;98752.69;;;49.33;9.22
75945;BME280;64628;50.104;14.614;2023-05-21T07:57:52;98748.68;;;49.17;8.89
75945;BME280;64628;50.104;14.614;2023-05-21T08:00:22;98752.41;;;49.05;9.01
75945;BME280;64628;50.104;14.614;2023-05-21T08:02:43;98752.23;;;49.27;8.92
75945;BME280;64628;50.104;14.614;2023-05-21T08:05:09;98749.89;;;50.00;8.86
75945;BME280;64628;50.104;14.614;2023-05-21T08:07:38;98747.16;;;50.30;8.84
75945;BME280;64628;50.104;14.614;2023-05-21T08:12:25;98744.42;;;50.73;8.22
75945;BME280;64628;50.104;14.614;2023-05-21T08:15:01;98747.26;;;51.01;8.17
75945;BME280;64628;50.104;14.614;2023-05-21T08:17:24;98744.71;;;50.42;8.25
75945;BME280;64628;50.104;14.614;2023-05-21T08:22:06;98742.62;;;50.89;8.36
75945;BME280;64628;50.104;14.614;2023-05-21T08:24:31;98745.23;;;50.87;7.81
75945;BME280;64628;50.104;14.614;2023-05-21T08:27:00;98750.39;;;50.91;8.07
75945;BME280;64628;50.104;14.614;2023-05-21T08:29:22;98747.81;;;51.28;7.97
75945;BME280;64628;50.104;14.614;2023-05-21T08:31:47;98744.92;;;51.62;8.05
75945;BME280;64628;50.104;14.614;2023-05-21T08:34:12;98744.75;;;51.36;8.20
75945;BME280;64628;50.104;14.614;2023-05-21T08:36:43;98740.66;;;51.26;8.12
75945;BME280;64628;50.104;14.614;2023-05-21T08:39:04;98738.48;;;51.50;8.33
75945;BME280;64628;50.104;14.614;2023-05-21T08:41:30;98736.14;;;51.58;7.83
75945;BME280;64628;50.104;14.614;2023-05-21T08:43:55;98736.11;;;51.72;8.23
75945;BME280;64628;50.104;14.614;2023-05-21T08:46:22;98730.75;;;51.71;7.66
75945;BME280;64628;50.104;14.614;2023-05-21T08:48:46;98730.64;;;51.96;7.97
75945;BME280;64628;50.104;14.614;2023-05-21T08:51:10;98736.47;;;51.80;7.90
75945;BME280;64628;50.104;14.614;2023-05-21T08:53:35;98733.94;;;52.27;7.70
75945;BME280;64628;50.104;14.614;2023-05-21T08:56:01;98731.48;;;51.91;7.91
75945;BME280;64628;50.104;14.614;2023-05-21T08:58:26;98732.02;;;51.98;7.71
75945;BME280;64628;50.104;14.614;2023-05-21T09:00:52;98728.08;;;52.04;8.01
75945;BME280;64628;50.104;14.614;2023-05-21T09:03:17;98728.08;;;51.87;8.02
75945;BME280;64628;50.104;14.614;2023-05-21T09:08:15;98729.46;;;51.68;7.61
75945;BME280;64628;50.104;14.614;2023-05-21T09:10:39;98725.50;;;51.83;7.63
75945;BME280;64628;50.104;14.614;2023-05-21T09:15:29;98725.52;;;51.49;7.89
75945;BME280;64628;50.104;14.614;2023-05-21T09:22:45;98720.47;;;51.26;7.86
75945;BME280;64628;50.104;14.614;2023-05-21T09:25:09;98720.84;;;51.09;8.21
75945;BME280;64628;50.104;14.614;2023-05-21T09:30:00;98720.35;;;50.55;8.38
75945;BME280;64628;50.104;14.614;2023-05-21T09:32:23;98715.50;;;50.47;8.49
75945;BME280;64628;50.104;14.614;2023-05-21T09:37:19;98714.00;;;49.99;8.40
75945;BME280;64628;50.104;14.614;2023-05-21T09:39:49;98708.33;;;50.21;8.59
75945;BME280;64628;50.104;14.614;2023-05-21T09:42:14;98706.48;;;50.04;8.41
75945;BME280;64628;50.104;14.614;2023-05-21T09:46:56;98710.80;;;49.75;9.06
75945;BME280;64628;50.104;14.614;2023-05-21T09:49:31;98708.33;;;49.10;8.62
75945;BME280;64628;50.104;14.614;2023-05-21T09:54:11;98707.77;;;46.34;10.38
75945;BME280;64628;50.104;14.614;2023-05-21T09:56:36;98698.95;;;45.06;11.06
75945;BME280;64628;50.104;14.614;2023-05-21T09:59:02;98697.56;;;43.73;12.77
75945;BME280;64628;50.104;14.614;2023-05-21T10:01:26;98691.14;;;42.24;13.36
75945;BME280;64628;50.104;14.614;2023-05-21T10:06:23;98692.94;;;41.65;14.62
75945;BME280;64628;50.104;14.614;2023-05-21T10:08:50;98695.73;;;41.28;15.12
75945;BME280;64628;50.104;14.614;2023-05-21T10:11:14;98695.53;;;41.27;14.94
75945;BME280;64628;50.104;14.614;2023-05-21T10:13:46;98685.75;;;40.32;15.86
75945;BME280;64628;50.104;14.614;2023-05-21T10:16:01;98692.92;;;39.90;16.44
75945;BME280;64628;50.104;14.614;2023-05-21T10:18:35;98683.97;;;40.34;16.15
75945;BME280;64628;50.104;14.614;2023-05-21T10:20:57;98684.73;;;40.24;16.05
75945;BME280;64628;50.104;14.614;2023-05-21T10:23:26;98688.66;;;40.00;14.59
75945;BME280;64628;50.104;14.614;2023-05-21T10:25:47;98687.83;;;39.71;15.99
75945;BME280;64628;50.104;14.614;2023-05-21T10:28:06;98683.43;;;39.61;16.62
75945;BME280;64628;50.104;14.614;2023-05-21T10:30:39;98680.23;;;39.16;16.16
75945;BME280;64628;50.104;14.614;2023-05-21T10:32:59;98673.63;;;39.04;16.46
75945;BME280;64628;50.104;14.614;2023-05-21T10:35:23;98666.25;;;38.64;16.91
75945;BME280;64628;50.104;14.614;2023-05-21T10:37:58;98665.10;;;38.45;17.32
75945;BME280;64628;50.104;14.614;2023-05-21T10:45:22;98661.55;;;38.38;18.17
75945;BME280;64628;50.104;14.614;2023-05-21T10:50:12;98657.75;;;38.36;17.86
75945;BME280;64628;50.104;14.614;2023-05-21T10:52:43;98653.83;;;38.05;17.94
75945;BME280;64628;50.104;14.614;2023-05-21T10:57:24;98652.01;;;37.39;18.21
75945;BME280;64628;50.104;14.614;2023-05-21T10:59:48;98660.24;;;37.09;18.44
75945;BME280;64628;50.104;14.614;2023-05-21T11:02:14;98658.53;;;37.05;18.83
75945;BME280;64628;50.104;14.614;2023-05-21T11:04:43;98653.96;;;36.24;18.82
75945;BME280;64628;50.104;14.614;2023-05-21T11:07:06;98658.47;;;35.77;19.43
75945;BME280;64628;50.104;14.614;2023-05-21T11:09:23;98661.08;;;35.56;19.77
75945;BME280;64628;50.104;14.614;2023-05-21T11:11:57;98660.02;;;35.52;20.39
75945;BME280;64628;50.104;14.614;2023-05-21T11:14:26;98658.85;;;35.77;20.36
75945;BME280;64628;50.104;14.614;2023-05-21T11:16:44;98656.07;;;36.07;19.24
75945;BME280;64628;50.104;14.614;2023-05-21T11:19:15;98655.15;;;35.37;20.19
75945;BME280;64628;50.104;14.614;2023-05-21T11:21:32;98657.63;;;35.04;20.75
75945;BME280;64628;50.104;14.614;2023-05-21T11:24:01;98648.89;;;35.42;20.57
75945;BME280;64628;50.104;14.614;2023-05-21T11:26:57;98652.94;;;34.39;20.40
75945;BME280;64628;50.104;14.614;2023-05-21T11:31:23;98646.88;;;33.59;21.61
75945;BME280;64628;50.104;14.614;2023-05-21T11:33:43;98646.36;;;33.36;22.23
75945;BME280;64628;50.104;14.614;2023-05-21T11:36:17;98645.31;;;32.86;23.10
75945;BME280;64628;50.104;14.614;2023-05-21T11:38:33;98646.33;;;32.49;22.62
75945;BME280;64628;50.104;14.614;2023-05-21T11:41:00;98642.06;;;32.81;22.76
75945;BME280;64628;50.104;14.614;2023-05-21T11:43:26;98640.85;;;33.25;22.76
75945;BME280;64628;50.104;14.614;2023-05-21T11:45:49;98630.38;;;33.49;22.18
75945;BME280;64628;50.104;14.614;2023-05-21T11:48:25;98632.61;;;33.98;22.15
75945;BME280;64628;50.104;14.614;2023-05-21T11:50:53;98634.03;;;34.50;22.13
75945;BME280;64628;50.104;14.614;2023-05-21T11:53:03;98635.29;;;34.20;21.93
75945;BME280;64628;50.104;14.614;2023-05-21T12:00:36;98629.05;;;35.31;21.12
75945;BME280;64628;50.104;14.614;2023-05-21T12:05:18;98633.70;;;34.59;20.80
75945;BME280;64628;50.104;14.614;2023-05-21T12:12:28;98630.72;;;34.73;20.77
75945;BME280;64628;50.104;14.614;2023-05-21T12:17:25;98625.75;;;34.01;21.30
75945;BME280;64628;50.104;14.614;2023-05-21T12:22:07;98616.72;;;34.39;20.83
75945;BME280;64628;50.104;14.614;2023-05-21T12:24:36;98616.70;;;34.90;20.55
75945;BME280;64628;50.104;14.614;2023-05-21T12:27:02;98612.85;;;35.05;21.11
75945;BME280;64628;50.104;14.614;2023-05-21T12:29:23;98617.68;;;34.55;20.56
75945;BME280;64628;50.104;14.614;2023-05-21T12:44:16;98608.35;;;34.57;20.78
75945;BME280;64628;50.104;14.614;2023-05-21T12:46:31;98603.97;;;34.23;20.17
75945;BME280;64628;50.104;14.614;2023-05-21T13:08:16;98595.67;;;33.44;21.68
75945;BME280;64628;50.104;14.614;2023-05-21T13:10:45;98595.86;;;32.87;21.71
75945;BME280;64628;50.104;14.614;2023-05-21T13:18:01;98587.63;;;33.02;22.38
75945;BME280;64628;50.104;14.614;2023-05-21T13:52:00;98565.00;;;34.82;15.71
75945;BME280;64628;50.104;14.614;2023-05-21T14:04:07;98567.28;;;34.21;15.76
75945;BME280;64628;50.104;14.614;2023-05-21T14:40:39;98553.81;;;34.18;16.36
75945;BME280;64628;50.104;14.614;2023-05-21T14:50:16;98555.67;;;33.62;16.73
75945;BME280;64628;50.104;14.614;2023-05-21T15:19:18;98552.22;;;33.82;16.64
75945;BME280;64628;50.104;14.614;2023-05-21T15:21:47;98548.96;;;33.84;15.96
75945;BME280;64628;50.104;14.614;2023-05-21T15:24:00;98546.20;;;33.35;15.19
75945;BME280;64628;50.104;14.614;2023-05-21T15:26:42;98546.81;;;33.10;15.57
75945;BME280;64628;50.104;14.614;2023-05-21T15:29:04;98545.51;;;33.26;17.02
75945;BME280;64628;50.104;14.614;2023-05-21T16:05:13;98520.90;;;32.42;16.67
75945;BME280;64628;50.104;14.614;2023-05-21T16:44:01;98543.35;;;31.92;20.61
75945;BME280;64628;50.104;14.614;2023-05-21T16:46:36;98544.74;;;31.88;20.54
75945;BME280;64628;50.104;14.614;2023-05-21T17:13:00;98550.72;;;30.06;23.33
75945;BME280;64628;50.104;14.614;2023-05-21T17:15:26;98549.75;;;29.23;23.88
75945;BME280;64628;50.104;14.614;2023-05-21T17:17:51;98548.83;;;29.29;24.24
75945;BME280;64628;50.104;14.614;2023-05-21T17:20:16;98553.21;;;28.84;24.95
75945;BME280;64628;50.104;14.614;2023-05-21T17:22:41;98556.28;;;28.25;25.63
75945;BME280;64628;50.104;14.614;2023-05-21T17:25:08;98555.34;;;28.15;25.92
75945;BME280;64628;50.104;14.614;2023-05-21T17:27:33;98555.47;;;27.98;26.46
75945;BME280;64628;50.104;14.614;2023-05-21T17:29:58;98558.40;;;27.78;26.88
75945;BME280;64628;50.104;14.614;2023-05-21T17:32:23;98560.15;;;27.74;26.77
75945;BME280;64628;50.104;14.614;2023-05-21T17:34:49;98566.10;;;27.60;26.96
75945;BME280;64628;50.104;14.614;2023-05-21T17:37:15;98574.52;;;26.90;27.39
75945;BME280;64628;50.104;14.614;2023-05-21T17:39:40;98575.64;;;27.26;27.62
75945;BME280;64628;50.104;14.614;2023-05-21T17:42:06;98576.11;;;27.24;27.89
75945;BME280;64628;50.104;14.614;2023-05-21T17:44:32;98569.70;;;26.97;28.26
75945;BME280;64628;50.104;14.614;2023-05-21T17:46:58;98570.19;;;26.76;28.60
75945;BME280;64628;50.104;14.614;2023-05-21T17:49:23;98572.23;;;26.19;28.50
75945;BME280;64628;50.104;14.614;2023-05-21T18:18:46;98574.85;;;25.05;29.49
75945;BME280;64628;50.104;14.614;2023-05-21T19:19:04;98608.07;;;22.87;33.33
75945;BME280;64628;50.104;14.614;2023-05-21T19:21:29;98610.63;;;22.73;33.65
75945;BME280;64628;50.104;14.614;2023-05-21T19:23:55;98617.29;;;22.97;33.86
75945;BME280;64628;50.104;14.614;2023-05-21T19:46:04;98619.19;;;22.15;34.18
75945;BME280;64628;50.104;14.614;2023-05-21T19:48:08;98618.47;;;22.39;34.50
75945;BME280;64628;50.104;14.614;2023-05-21T19:50:34;98613.38;;;22.18;34.49
75945;BME280;64628;50.104;14.614;2023-05-21T19:52:59;98615.63;;;22.06;35.20
75945;BME280;64628;50.104;14.614;2023-05-21T19:55:24;98615.43;;;22.00;35.21
75945;BME280;64628;50.104;14.614;2023-05-21T19:57:50;98611.86;;;21.55;35.49
75945;BME280;64628;50.104;14.614;2023-05-21T20:00:17;98613.85;;;21.89;35.88
75945;BME280;64628;50.104;14.614;2023-05-21T20:02:41;98618.52;;;21.79;36.12
75945;BME280;64628;50.104;14.614;2023-05-21T20:05:08;98617.63;;;21.46;36.32
75945;BME280;64628;50.104;14.614;2023-05-21T20:07:32;98615.53;;;21.42;36.78
75945;BME280;64628;50.104;14.614;2023-05-21T20:09:58;98616.98;;;21.66;36.68
75945;BME280;64628;50.104;14.614;2023-05-21T20:12:22;98617.13;;;21.54;37.06
75945;BME280;64628;50.104;14.614;2023-05-21T20:14:48;98614.44;;;21.21;37.31
75945;BME280;64628;50.104;14.614;2023-05-21T20:17:13;98614.11;;;21.39;37.43
75945;BME280;64628;50.104;14.614;2023-05-21T20:34:12;98616.71;;;21.18;38.43
75945;BME280;64628;50.104;14.614;2023-05-21T20:36:38;98615.70;;;21.14;38.72
75945;BME280;64628;50.104;14.614;2023-05-21T20:39:03;98612.57;;;21.05;38.82
75945;BME280;64628;50.104;14.614;2023-05-21T20:41:28;98610.36;;;21.21;38.93
75945;BME280;64628;50.104;14.614;2023-05-21T20:43:53;98613.72;;;21.11;39.14
75945;BME280;64628;50.104;14.614;2023-05-21T20:46:19;98618.09;;;20.53;39.45
75945;BME280;64628;50.104;14.614;2023-05-21T20:48:44;98619.94;;;20.94;39.55
75945;BME280;64628;50.104;14.614;2023-05-21T20:51:09;98623.06;;;20.87;39.70
75945;BME280;64628;50.104;14.614;2023-05-21T20:53:35;98623.06;;;20.51;40.00
75945;BME280;64628;50.104;14.614;2023-05-21T20:56:00;98624.61;;;20.44;40.15
75945;BME280;64628;50.104;14.614;2023-05-21T20:58:26;98626.58;;;20.34;40.21
75945;BME280;64628;50.104;14.614;2023-05-21T21:00:51;98625.80;;;20.29;40.34
75945;BME280;64628;50.104;14.614;2023-05-21T21:03:17;98625.91;;;20.44;40.59
75945;BME280;64628;50.104;14.614;2023-05-21T21:05:43;98625.48;;;20.38;40.77
75945;BME280;64628;50.104;14.614;2023-05-21T21:08:07;98631.85;;;20.08;40.71
75945;BME280;64628;50.104;14.614;2023-05-21T21:10:33;98634.00;;;20.26;40.96
75945;BME280;64628;50.104;14.614;2023-05-21T21:12:59;98629.13;;;20.14;41.30
75945;BME280;64628;50.104;14.614;2023-05-21T21:15:24;98627.69;;;19.87;41.17
75945;BME280;64628;50.104;14.614;2023-05-21T21:17:49;98625.62;;;20.02;41.25
75945;BME280;64628;50.104;14.614;2023-05-21T21:20:14;98630.87;;;19.97;41.21
75945;BME280;64628;50.104;14.614;2023-05-21T21:22:40;98631.14;;;19.89;41.38
75945;BME280;64628;50.104;14.614;2023-05-21T21:25:06;98633.04;;;19.82;41.50
75945;BME280;64628;50.104;14.614;2023-05-21T21:27:30;98632.50;;;19.78;41.67
75945;BME280;64628;50.104;14.614;2023-05-21T21:29:56;98636.95;;;19.72;41.77
75945;BME280;64628;50.104;14.614;2023-05-21T21:32:21;98636.40;;;20.13;41.72
75945;BME280;64628;50.104;14.614;2023-05-21T21:34:47;98638.00;;;19.83;41.66
75945;BME280;64628;50.104;14.614;2023-05-21T21:37:13;98637.22;;;19.54;41.99
75945;BME280;64628;50.104;14.614;2023-05-21T21:39:38;98644.48;;;19.91;42.09
75945;BME280;64628;50.104;14.614;2023-05-21T21:42:04;98641.96;;;19.32;42.46
75945;BME280;64628;50.104;14.614;2023-05-21T21:44:29;98641.57;;;19.24;42.51
75945;BME280;64628;50.104;14.614;2023-05-21T21:46:55;98641.94;;;19.65;42.49
75945;BME280;64628;50.104;14.614;2023-05-21T21:49:20;98643.22;;;19.10;42.52
75945;BME280;64628;50.104;14.614;2023-05-21T21:51:45;98643.61;;;19.52;42.50
75945;BME280;64628;50.104;14.614;2023-05-21T21:54:11;98643.08;;;19.45;42.46
75945;BME280;64628;50.104;14.614;2023-05-21T21:56:37;98643.83;;;18.89;42.83
75945;BME280;64628;50.104;14.614;2023-05-21T21:59:02;98643.73;;;19.27;42.93
75945;BME280;64628;50.104;14.614;2023-05-21T22:01:28;98642.31;;;19.19;43.01
75945;BME280;64628;50.104;14.614;2023-05-21T22:03:53;98639.58;;;19.14;43.19
75945;BME280;64628;50.104;14.614;2023-05-21T22:06:18;98639.33;;;19.08;43.38
75945;BME280;64628;50.104;14.614;2023-05-21T22:08:44;98637.56;;;19.05;43.29
75945;BME280;64628;50.104;14.614;2023-05-21T22:11:09;98634.08;;;19.01;43.28
75945;BME280;64628;50.104;14.614;2023-05-21T22:13:34;98630.79;;;18.93;43.35
75945;BME280;64628;50.104;14.614;2023-05-21T22:16:00;98634.13;;;19.06;43.60
75945;BME280;64628;50.104;14.614;2023-05-21T22:18:25;98630.38;;;18.98;43.86
75945;BME280;64628;50.104;14.614;2023-05-21T22:23:25;98632.60;;;18.63;43.54
75945;BME280;64628;50.104;14.614;2023-05-21T22:25:54;98632.26;;;18.97;43.35
75945;BME280;64628;50.104;14.614;2023-05-21T22:28:19;98632.25;;;19.01;43.46
75945;BME280;64628;50.104;14.614;2023-05-21T22:35:30;98625.68;;;18.85;43.62
75945;BME280;64628;50.104;14.614;2023-05-21T22:40:30;98620.04;;;18.83;44.11
75945;BME280;64628;50.104;14.614;2023-05-21T22:45:18;98621.25;;;18.62;44.16
75945;BME280;64628;50.104;14.614;2023-05-21T22:50:16;98622.40;;;18.53;44.39
75945;BME280;64628;50.104;14.614;2023-05-21T22:54:52;98619.72;;;18.48;44.45
75945;BME280;64628;50.104;14.614;2023-05-21T22:57:15;98619.88;;;18.55;44.53
75945;BME280;64628;50.104;14.614;2023-05-21T22:59:50;98614.88;;;18.62;44.20
75945;BME280;64628;50.104;14.614;2023-05-21T23:07:08;98616.18;;;18.51;44.13
75945;BME280;64628;50.104;14.614;2023-05-21T23:09:34;98613.60;;;18.36;44.29
75945;BME280;64628;50.104;14.614;2023-05-21T23:21:38;98613.60;;;18.37;44.49
75945;BME280;64628;50.104;14.614;2023-05-21T23:31:20;98605.11;;;17.79;44.81
75945;BME280;64628;50.104;14.614;2023-05-21T23:36:07;98612.47;;;18.19;44.92
75945;BME280;64628;50.104;14.614;2023-05-21T23:41:03;98614.95;;;17.97;45.29
75945;BME280;64628;50.104;14.614;2023-05-21T23:43:22;98616.06;;;17.95;45.52
75945;BME280;64628;50.104;14.614;2023-05-21T23:55:37;98622.66;;;17.91;45.48
75945;BME280;64628;50.104;14.614;2023-05-21T23:58:00;98624.58;;;17.64;45.66
